Nearby METAR Reports

 

KPIA - Peoria, Illinois, USA
Distance from station: SSW 11mi, 18km
Updated: 01/22/2018 3:24pm
Rain, Overcast
Rain, Overcast
 Wind from W
Wind: W 9 mph , 15 km/h
Temperature: 48°F , 9°C
Wind Chill: 44°F , 7°C
Dew Point: 45°F , 7°C
Humidity: 87%
Barometer: 29.43 inHg , 996.6 hPa
Summary: Rain
Clouds: Overcast
Visibility: 4 miles , 6 km
Cloud details: Few Clouds 2800 ft
Mostly cloudy 4000 ft
Overcast 4700 ft
2018/01/22 21:24 KPIA 222124Z 27008KT 4SM RA FEW028 BKN040 OVC047 09/07 A2943 RMK AO2 LTG DSNT N AND SE P0006 T00940067 $
KC75 - Lacon, Illinois, USA
Distance from station: NE 18mi, 30km
Updated: 01/22/2018 3:35pm

 Wind from SSW
Wind: SSW 5 mph , 7 km/h
Visibility: 7 miles , 11 km
2018/01/22 21:35 KC75 222135Z AUTO 20004KT 7SM -VCTSRA SCT028 BKN044 OVC050 08/05 A2942 RMK AO2 LTG DSNT NW THRU E P0005 T00810054
 
KGBG - Galesburg, Illinois, USA
Distance from station: W 43mi, 69km
Updated: 01/22/2018 3:35pm
Overcast
Overcast
 Wind from SW
Wind: SW 15 mph , 24 km/h, Gust: 21 mph , 33 km/h
Temperature: 45°F , 7°C
Wind Chill: 38°F , 3°C
Dew Point: 36°F , 2°C
Humidity: 71%
Barometer: 29.46 inHg , 997.6 hPa
Clouds: Overcast
Visibility: 10 miles , 16 km
Cloud details: Overcast 4700 ft
2018/01/22 21:35 KGBG 222135Z AUTO 23013G18KT 10SM OVC047 07/02 A2946 RMK AO2 T00720015
KBMI - Bloomington/Norm, Illinois, USA
Distance from station: ESE 44mi, 71km
Updated: 01/22/2018 3:24pm
Partly cloudy
Partly cloudy
 Wind from S
Wind: S 24 mph , 39 km/h, Gust: 33 mph , 54 km/h
Temperature: 55°F , 13°C
Dew Point: 45°F , 7°C
Humidity: 67%
Barometer: 29.42 inHg , 996.3 hPa
Clouds: Partly cloudy
Visibility: 10 miles , 16 km
Cloud details: Partly cloudy 4000 ft
2018/01/22 21:24 KBMI 222124Z 19021G29KT 10SM SCT040 13/07 A2942 RMK AO2 PK WND 18032/2108 LTG DSNT SW
 
KVYS - Peru, Illinois, USA
Distance from station: NNE 44mi, 71km
Updated: 01/22/2018 3:35pm
Mostly cloudy
Mostly cloudy
 Wind from S
Wind: S 13 mph , 20 km/h, Gust: 18 mph , 30 km/h
Temperature: 54°F , 12°C
Dew Point: 46°F , 8°C
Humidity: 77%
Barometer: 29.40 inHg , 995.6 hPa
Clouds: Mostly cloudy
Visibility: 10 miles , 16 km
Cloud details: Partly cloudy 3800 ft
Mostly cloudy 4800 ft
Mostly cloudy 6000 ft
2018/01/22 21:35 KVYS 222135Z AUTO 19011G16KT 10SM SCT038 BKN048 BKN060 12/08 A2940 RMK AO2 LTG DSNT S T01170075
KAAA - Lincoln, Illinois, USA
Distance from station: SSE 48mi, 77km
Updated: 01/22/2018 3:35pm
Light rain, Mostly cloudy
Light rain, Mostly cloudy
 Wind from W
Wind: W 13 mph , 20 km/h, Gust: 20 mph , 31 km/h
Temperature: 54°F , 12°C
Dew Point: 45°F , 7°C
Humidity: 72%
Barometer: 29.44 inHg , 997 hPa
Summary: Light rain
Clouds: Mostly cloudy
Visibility: 10 miles , 16 km
Cloud details: Partly cloudy 3700 ft
Partly cloudy 4300 ft
Mostly cloudy 4900 ft
2018/01/22 21:35 KAAA 222135Z AUTO 26011G17KT 10SM -RA SCT037 SCT043 BKN049 12/07 A2944 RMK AO2 T01160065
 
KPNT - Pontiac, Illinois, USA
Distance from station: E 53mi, 85km
Updated: 01/22/2018 3:35pm
Partly cloudy
Partly cloudy
 Wind from S
Wind: S 18 mph , 30 km/h, Gust: 25 mph , 41 km/h
Temperature: 55°F , 13°C
Dew Point: 52°F , 11°C
Humidity: 88%
Barometer: 29.43 inHg , 996.6 hPa
Clouds: Partly cloudy
Visibility: 10 miles , 16 km
Cloud details: Partly cloudy 3100 ft
Partly cloudy 3800 ft
Partly cloudy 4600 ft
2018/01/22 21:35 KPNT 222135Z AUTO 17016G22KT 10SM SCT031 SCT038 SCT046 13/11 A2943 RMK AO2 LTG DSNT W T01270112
KMQB - Macomb Muni, Illinois, USA
Distance from station: WSW 58mi, 93km
Updated: 01/22/2018 3:35pm
Mostly cloudy
Mostly cloudy
 Wind from SW
Wind: SW 17 mph , 28 km/h, Gust: 22 mph , 35 km/h
Temperature: 45°F , 7°C
Wind Chill: 38°F , 3°C
Dew Point: 34°F , 1°C
Humidity: 66%
Barometer: 29.48 inHg , 998.3 hPa
Clouds: Mostly cloudy
Visibility: 10 miles , 16 km
Cloud details: Partly cloudy 4100 ft
Mostly cloudy 6000 ft
Mostly cloudy 8000 ft
2018/01/22 21:35 KMQB 222135Z AUTO 23015G19KT 10SM SCT041 BKN060 BKN080 07/01 A2948 RMK AO2 T00680006
 
KMLI - Moline/Quad City, Illinois, USA
Distance from station: NW 64mi, 103km
Updated: 01/22/2018 2:52pm
Few Clouds
Few Clouds
 Wind from SW
Wind: SW 16 mph , 26 km/h, Gust: 24 mph , 39 km/h
Temperature: 54°F , 12°C
Dew Point: 36°F , 2°C
Humidity: 51%
Barometer: 29.40 inHg , 995.6 hPa
Clouds: Few Clouds
Visibility: 10 miles , 16 km
Cloud details: Few Clouds 4500 ft
2018/01/22 20:52 KMLI 222052Z 22014G21KT 10SM FEW045 12/02 A2940 RMK AO2 PK WND 24027/2033 SLP957 T01170017 55003
KSQI - Sterling Rockfal, Illinois, USA
Distance from station: N 64mi, 103km
Updated: 01/22/2018 2:56pm

 Wind from WSW
Wind: WSW 12 mph , 19 km/h
Temperature: 55°F , 13°C
Dew Point: 46°F , 8°C
Humidity: 72%
Barometer: 29.39 inHg , 995.3 hPa
Visibility: 10 miles , 16 km
2018/01/22 20:56 KSQI 222056Z AUTO 25010KT 10SM 13/08 A2939 RMK AO2 SLPNO 6//// T01330083
 
KSPI - Springfield, Illinois, USA
Distance from station: S 67mi, 108km
Updated: 01/22/2018 2:55pm
Mostly cloudy
Mostly cloudy
 Wind from W
Wind: W 28 mph , 44 km/h, Gust: 37 mph , 59 km/h
Temperature: 54°F , 12°C
Dew Point: 43°F , 6°C
Humidity: 67%
Barometer: 29.42 inHg , 996.3 hPa
Clouds: Mostly cloudy
Visibility: 10 miles , 16 km
Cloud details: Partly cloudy 5500 ft
Mostly cloudy 7000 ft
2018/01/22 20:55 KSPI 222055Z 27024G32KT 10SM SCT055 BKN070 12/06 A2942 RMK AO2 PK WND 27029/2055 WSHFT 2039 LTG DSNT N AND NE T01170061
KDVN - Davenport/Quad C, Iowa, USA
Distance from station: NW 74mi, 120km
Updated: 01/22/2018 2:52pm

 Wind from W
Wind: W 18 mph , 30 km/h, Gust: 24 mph , 39 km/h
Temperature: 52°F , 11°C
Dew Point: 39°F , 4°C
Humidity: 62%
Barometer: 29.43 inHg , 996.6 hPa
Visibility: 10 miles , 16 km
2018/01/22 20:52 KDVN 222052Z AUTO 26016G21KT 10SM 11/04 A2943 RMK AO2 SLP963 T01060039 55002 $